Time;durP1;ratioP1;P1;durP2;ratioP2;P2;SDS_P1;SDS_P2;PMS_P1;PMS_P2;Temp;Humidity;BMP_temperature;BMP_pressure;BME280_temperature;BME280_humidity;BME280_pressure;Samples;Min_cycle;Max_cycle;Signal;HPM_P1;HPM_P2
2021/06/27 00:02:02;;;;;;;6.07;5.57;;;;;;;20.98;68.60;95669.88;4895877;29;20207;-87
2021/06/27 00:04:36;;;;;;;6.68;6.07;;;;;;;20.94;69.31;95664.34;4896146;29;20365;-87
2021/06/27 00:07:08;;;;;;;6.93;6.38;;;;;;;20.95;69.33;95652.84;4896523;29;20210;-87
2021/06/27 00:09:48;;;;;;;6.75;6.15;;;;;;;21.04;68.98;95663.69;4896077;29;20258;-87
2021/06/27 00:12:28;;;;;;;7.38;6.70;;;;;;;21.11;68.63;95660.91;4895200;29;20213;-87
2021/06/27 00:14:55;;;;;;;7.53;6.82;;;;;;;20.95;69.55;95662.53;4893202;29;21029;-87
2021/06/27 00:17:22;;;;;;;7.68;6.97;;;;;;;20.91;69.99;95656.97;4895976;29;20271;-87
2021/06/27 00:19:54;;;;;;;7.65;7.00;;;;;;;20.87;69.91;95655.84;4896291;29;20209;-87
2021/06/27 00:22:21;;;;;;;7.10;6.50;;;;;;;20.95;69.44;95665.16;4895681;29;20195;-87
2021/06/27 00:24:53;;;;;;;7.10;6.45;;;;;;;20.96;69.84;95657.06;4895713;29;20231;-87
2021/06/27 00:27:23;;;;;;;8.07;7.38;;;;;;;21.03;69.90;95662.09;4895902;29;20206;-88
2021/06/27 00:29:56;;;;;;;7.70;7.10;;;;;;;21.07;69.19;95657.19;4896299;29;20572;-87
2021/06/27 00:32:23;;;;;;;7.85;7.15;;;;;;;20.93;69.91;95652.28;4895961;29;20207;-87
2021/06/27 00:34:52;;;;;;;7.25;6.65;;;;;;;20.96;69.74;95651.03;4895964;29;20241;-87
2021/06/27 00:37:21;;;;;;;7.30;6.70;;;;;;;21.08;69.40;95651.72;4895770;29;20253;-87
2021/06/27 00:39:52;;;;;;;7.13;6.53;;;;;;;20.94;69.32;95650.47;4895749;29;20285;-87
2021/06/27 00:42:23;;;;;;;7.22;6.63;;;;;;;20.94;69.06;95655.69;4895358;29;20574;-87
2021/06/27 00:44:53;;;;;;;7.38;6.78;;;;;;;21.07;68.96;95657.19;4895686;29;20742;-87
2021/06/27 00:47:40;;;;;;;6.30;5.80;;;;;;;21.02;66.39;95653.47;4895375;29;20199;-87
2021/06/27 00:50:09;;;;;;;5.60;5.20;;;;;;;21.04;64.42;95656.63;4895566;29;20217;-87
2021/06/27 00:52:36;;;;;;;6.15;5.32;;;;;;;21.04;64.37;95651.38;4895221;29;20199;-87
2021/06/27 00:55:08;;;;;;;6.35;5.50;;;;;;;21.09;63.27;95660.34;4895354;29;20219;-87
2021/06/27 00:57:36;;;;;;;5.68;5.22;;;;;;;21.09;63.38;95658.53;4894904;29;20234;-87
2021/06/27 01:02:50;;;;;;;6.25;5.65;;;;;;;21.04;64.08;95651.38;4893781;29;20238;-87
2021/06/27 01:05:19;;;;;;;4.93;4.53;;;;;;;21.04;63.39;95648.78;4895100;29;20266;-87
2021/06/27 01:07:46;;;;;;;6.13;5.45;;;;;;;20.98;63.87;95651.56;4895248;29;20242;-86
2021/06/27 01:10:17;;;;;;;5.10;4.70;;;;;;;21.01;63.05;95648.47;4895029;29;20239;-87
2021/06/27 01:12:52;;;;;;;6.22;5.20;;;;;;;20.99;63.51;95650.53;4895408;29;20225;-87
2021/06/27 01:15:18;;;;;;;4.57;4.25;;;;;;;21.03;62.04;95654.25;4876341;29;20256;-87
2021/06/27 01:17:55;;;;;;;5.35;4.20;;;;;;;21.07;62.42;95657.97;4876450;29;20263;-87
2021/06/27 01:20:25;;;;;;;4.88;4.47;;;;;;;20.96;61.39;95658.88;4876520;29;20207;-87
2021/06/27 01:22:55;;;;;;;4.95;4.55;;;;;;;20.86;62.28;95661.31;4883532;29;20199;-87
2021/06/27 01:25:23;;;;;;;4.00;3.70;;;;;;;20.88;61.41;95656.66;4894241;29;20235;-87
2021/06/27 01:27:52;;;;;;;4.03;3.72;;;;;;;20.83;59.93;95652.13;4894678;29;20199;-87
2021/06/27 01:30:20;;;;;;;5.65;3.72;;;;;;;20.88;60.44;95649.59;4894736;29;20272;-86
2021/06/27 01:32:51;;;;;;;4.20;3.90;;;;;;;20.88;60.74;95651.41;4894436;29;20238;-87
2021/06/27 01:35:19;;;;;;;4.10;3.80;;;;;;;20.77;60.23;95645.25;4894471;29;20306;-87
2021/06/27 01:37:58;;;;;;;3.90;3.60;;;;;;;20.67;60.86;95632.78;4894715;29;20222;-87
2021/06/27 01:40:27;;;;;;;4.03;3.72;;;;;;;20.68;61.21;95638.81;4894295;29;20240;-88
2021/06/27 01:43:17;;;;;;;4.40;4.00;;;;;;;20.78;60.60;95636.38;4894607;29;20211;-87
2021/06/27 01:45:57;;;;;;;5.30;3.90;;;;;;;20.79;59.89;95639.75;4894238;29;20242;-87
2021/06/27 01:48:24;;;;;;;4.13;3.70;;;;;;;20.76;61.36;95641.03;4894469;29;20262;-87
2021/06/27 01:50:55;;;;;;;4.97;3.83;;;;;;;20.85;60.93;95644.81;4894521;29;20203;-87
2021/06/27 01:53:25;;;;;;;4.30;3.90;;;;;;;20.82;60.26;95642.69;4894675;29;20285;-87
2021/06/27 01:56:04;;;;;;;4.50;4.07;;;;;;;20.81;61.08;95642.91;4893457;29;20781;-86
2021/06/27 01:58:38;;;;;;;4.25;3.90;;;;;;;20.79;61.50;95640.53;4894066;29;20206;-87
2021/06/27 02:01:07;;;;;;;4.65;4.25;;;;;;;20.56;62.40;95638.91;4893692;29;20294;-87
2021/06/27 02:03:33;;;;;;;6.15;4.57;;;;;;;20.43;63.46;95646.25;4893865;29;20652;-87
2021/06/27 02:06:00;;;;;;;4.97;4.50;;;;;;;20.31;64.19;95648.91;4894109;29;20226;-86
2021/06/27 02:08:34;;;;;;;5.00;4.50;;;;;;;20.33;65.10;95658.09;4894012;29;20915;-87
2021/06/27 02:11:01;;;;;;;4.70;4.30;;;;;;;20.38;64.86;95661.88;4893477;29;20218;-88
2021/06/27 02:13:27;;;;;;;5.30;4.82;;;;;;;20.37;65.90;95661.06;4893553;29;20659;-87
2021/06/27 02:15:54;;;;;;;5.97;5.47;;;;;;;20.33;65.20;95657.31;4893862;29;20219;-87
2021/06/27 02:18:29;;;;;;;8.02;6.00;;;;;;;20.04;66.64;95659.13;4893374;29;20225;-87
2021/06/27 02:21:00;;;;;;;6.03;5.43;;;;;;;20.06;66.23;95658.91;4893404;29;20692;-87
2021/06/27 02:23:30;;;;;;;6.00;5.50;;;;;;;19.93;66.75;95663.38;4893737;29;20199;-86
2021/06/27 02:25:58;;;;;;;5.10;4.70;;;;;;;19.92;67.25;95659.19;4893335;29;20248;-87
2021/06/27 02:28:27;;;;;;;5.10;4.60;;;;;;;19.92;66.91;95656.56;4894012;29;20671;-86
2021/06/27 02:30:54;;;;;;;4.88;4.53;;;;;;;19.90;67.07;95663.84;4893599;29;20206;-87
2021/06/27 02:33:21;;;;;;;5.07;4.68;;;;;;;19.98;66.79;95667.91;4893648;29;20202;-87
2021/06/27 02:35:52;;;;;;;5.43;4.97;;;;;;;19.91;67.80;95665.44;4893609;29;20262;-87
2021/06/27 02:38:19;;;;;;;4.78;4.32;;;;;;;19.93;67.30;95665.19;4892785;29;20198;-87
2021/06/27 02:40:47;;;;;;;5.05;4.60;;;;;;;19.77;67.77;95668.56;4893173;29;20206;-87
2021/06/27 02:43:17;;;;;;;5.07;4.45;;;;;;;19.63;68.31;95663.56;4893598;29;20304;-87
2021/06/27 02:45:44;;;;;;;4.80;4.40;;;;;;;19.60;68.06;95658.03;4893023;29;20230;-87
2021/06/27 02:48:14;;;;;;;4.68;4.28;;;;;;;19.54;68.84;95654.53;4893519;29;20832;-87
2021/06/27 02:50:41;;;;;;;4.80;4.40;;;;;;;19.55;68.29;95671.78;4893621;29;20203;-87
2021/06/27 02:53:09;;;;;;;4.40;4.10;;;;;;;19.66;68.37;95670.94;4893148;29;20604;-88
2021/06/27 02:55:36;;;;;;;4.50;4.10;;;;;;;19.72;67.69;95671.06;4892558;29;20261;-87
2021/06/27 02:58:03;;;;;;;4.22;3.92;;;;;;;19.60;67.98;95666.66;4893500;29;20206;-87
2021/06/27 03:00:32;;;;;;;4.57;4.18;;;;;;;19.55;68.13;95660.53;4893132;29;20203;-87
2021/06/27 03:03:00;;;;;;;4.80;4.40;;;;;;;19.45;68.32;95668.13;4892954;29;20254;-87
2021/06/27 03:08:07;;;;;;;4.15;3.85;;;;;;;19.35;69.04;95663.50;4874836;29;20720;-87
2021/06/27 03:10:35;;;;;;;6.20;4.07;;;;;;;19.44;68.31;95662.09;4881587;29;20293;-87
2021/06/27 03:13:02;;;;;;;4.43;4.03;;;;;;;19.32;69.18;95663.94;4893854;29;20302;-87
2021/06/27 03:15:33;;;;;;;5.30;4.57;;;;;;;19.40;69.22;95660.19;4893445;29;20295;-86
2021/06/27 03:18:01;;;;;;;4.57;4.13;;;;;;;19.43;68.54;95665.75;4893206;29;20309;-86
2021/06/27 03:20:29;;;;;;;4.88;4.43;;;;;;;19.37;68.41;95661.44;4893258;29;20234;-87
2021/06/27 03:22:56;;;;;;;4.85;4.00;;;;;;;19.48;69.14;95660.63;4892596;29;20247;-87
2021/06/27 03:25:26;;;;;;;5.15;3.95;;;;;;;19.59;68.63;95656.44;4892790;29;20403;-87
2021/06/27 03:27:54;;;;;;;4.30;4.00;;;;;;;19.64;67.73;95653.91;4892914;29;20249;-87
2021/06/27 03:30:21;;;;;;;4.55;4.10;;;;;;;19.57;68.49;95655.88;4881098;29;20513;-85
2021/06/27 03:32:49;;;;;;;4.85;4.10;;;;;;;19.46;68.85;95652.22;4874355;29;20253;-86
2021/06/27 03:35:16;;;;;;;4.75;4.38;;;;;;;19.24;69.04;95641.56;4874501;29;20303;-86
2021/06/27 03:37:54;;;;;;;4.45;4.15;;;;;;;19.27;69.72;95637.72;4874073;29;20273;-87
2021/06/27 03:40:20;;;;;;;4.88;4.47;;;;;;;19.32;69.20;95633.41;4874341;29;20207;-85
2021/06/27 03:42:52;;;;;;;4.80;4.40;;;;;;;19.40;69.73;95632.28;4887803;29;20548;-87
2021/06/27 03:45:21;;;;;;;9.32;4.78;;;;;;;19.53;69.92;95629.44;4892729;29;20237;-87
2021/06/27 03:47:49;;;;;;;6.43;4.18;;;;;;;19.75;68.56;95628.81;4892849;29;20203;-86
2021/06/27 03:50:18;;;;;;;4.43;4.13;;;;;;;19.76;68.79;95625.97;4895699;29;20211;-87
2021/06/27 03:52:50;;;;;;;4.43;4.03;;;;;;;19.84;67.78;95628.19;4905398;29;20336;-87
2021/06/27 03:55:44;;;;;;;4.95;4.15;;;;;;;19.97;69.31;95619.28;4901411;29;20275;-88
2021/06/27 03:58:10;;;;;;;5.45;3.78;;;;;;;20.09;67.50;95612.16;4873956;29;20283;-86
2021/06/27 04:00:37;;;;;;;3.95;3.20;;;;;;;20.05;64.22;95616.28;4885223;29;20346;-86
2021/06/27 04:03:05;;;;;;;3.55;2.95;;;;;;;19.89;62.09;95611.81;4896031;29;20251;-86
2021/06/27 04:05:35;;;;;;;3.58;2.90;;;;;;;19.77;61.93;95608.47;4914119;29;20245;-86
2021/06/27 04:08:03;;;;;;;2.78;2.58;;;;;;;19.81;62.75;95612.19;4914723;29;20261;-86
2021/06/27 04:10:32;;;;;;;4.00;2.67;;;;;;;19.92;62.98;95609.53;4914555;29;20210;-87
2021/06/27 04:12:59;;;;;;;3.40;3.13;;;;;;;19.96;61.98;95613.25;4905182;29;20277;-85
2021/06/27 04:15:26;;;;;;;3.13;2.83;;;;;;;19.97;62.96;95617.47;4895956;29;20735;-87
2021/06/27 04:17:52;;;;;;;2.88;2.67;;;;;;;20.02;61.60;95619.34;4896161;29;20637;-87
2021/06/27 04:20:24;;;;;;;3.00;2.80;;;;;;;20.02;61.58;95629.81;4896193;29;20203;-86
2021/06/27 04:22:51;;;;;;;3.50;2.80;;;;;;;20.18;62.08;95633.50;4895612;29;20210;-86
2021/06/27 04:25:22;;;;;;;2.97;2.78;;;;;;;20.21;62.01;95631.19;4895372;29;20598;-86
2021/06/27 04:27:51;;;;;;;3.33;2.60;;;;;;;20.30;61.89;95623.78;4895861;29;20313;-86
2021/06/27 04:30:21;;;;;;;3.35;3.05;;;;;;;20.32;61.72;95619.91;4895780;29;20210;-87
2021/06/27 04:32:48;;;;;;;3.60;3.00;;;;;;;20.39;61.39;95617.16;4895827;29;20215;-86
2021/06/27 04:35:15;;;;;;;4.57;3.22;;;;;;;20.39;61.50;95614.56;4895777;29;20219;-87
2021/06/27 04:51:00;;;;;;;3.88;2.70;;;;;;;20.88;59.33;95605.09;4865520;29;20207;-89
2021/06/27 04:57:31;;;;;;;3.17;2.65;;;;;;;21.12;57.39;95597.03;4761800;29;20230;-89
2021/06/27 04:59:59;;;;;;;2.50;2.30;;;;;;;21.20;57.73;95592.19;4827209;29;20328;-87
2021/06/27 05:06:28;;;;;;;2.67;2.47;;;;;;;21.06;56.00;95603.22;4887817;29;20277;-84
2021/06/27 05:09:09;;;;;;;2.70;2.47;;;;;;;20.87;56.72;95595.66;4891819;29;20368;-85
2021/06/27 05:11:37;;;;;;;2.47;2.20;;;;;;;20.89;56.87;95595.41;4896565;29;20731;-85
2021/06/27 05:14:08;;;;;;;2.58;2.38;;;;;;;20.93;57.80;95607.00;4897151;29;20229;-84
2021/06/27 05:16:44;;;;;;;2.60;2.40;;;;;;;21.05;55.77;95610.28;4896897;29;20218;-85
2021/06/27 05:19:30;;;;;;;;;;;;;;;;;;;;;
2021/06/27 05:22:20;;;;;;;;;;;;;;;;;;;;;
2021/06/27 05:38:38;;;;;;;4.13;3.42;;;;;;;20.66;56.08;95597.19;4832223;29;20229;-90
2021/06/27 05:41:27;;;;;;;2.40;2.20;;;;;;;20.66;57.04;95599.78;4857529;29;20238;-90
2021/06/27 08:34:10;;;;;;;1.73;1.30;;;;;;;23.71;49.09;95577.19;4882207;29;20789;-87
2021/06/27 08:40:45;;;;;;;1.20;1.20;;;;;;;24.04;48.70;95583.84;4780697;29;20218;-86
2021/06/27 08:53:43;;;;;;;2.42;2.22;;;;;;;24.55;48.09;95568.09;4831394;29;20329;-85
2021/06/27 09:02:26;;;;;;;;;;;;;;;;;;;;;
2021/06/27 09:08:40;;;;;;;;;;;;;;;;;;;;;
2021/06/27 09:11:46;;;;;;;2.53;1.40;;;;;;;25.33;44.73;95557.94;4855161;29;20211;-88
2021/06/27 09:14:33;;;;;;;1.40;1.30;;;;;;;25.44;45.26;95566.56;4842185;29;20646;-86
2021/06/27 09:17:10;;;;;;;3.33;1.55;;;;;;;25.52;45.52;95568.66;4857124;29;20208;-87
2021/06/27 09:31:37;;;;;;;2.10;1.98;;;;;;;25.83;45.10;95556.13;4618573;30;20279;-91
2021/06/27 11:46:51;;;;;;;1.65;1.55;;;;;;;28.99;36.24;95493.81;5556000;23;20239;-88
2021/06/27 11:52:35;;;;;;;1.80;1.70;;;;;;;28.95;36.43;95500.00;4763493;29;20215;-85
2021/06/27 12:08:24;;;;;;;9.55;1.75;;;;;;;29.41;35.06;95474.16;4826997;29;20232;-87
2021/06/27 12:52:59;;;;;;;2.20;2.10;;;;;;;30.06;38.19;95459.69;4747395;30;20220;-89
2021/06/27 13:05:35;;;;;;;2.13;2.03;;;;;;;29.96;38.19;95466.00;4757006;29;20247;-87
2021/06/27 13:08:30;;;;;;;;;;;;;;;;;;;;;
2021/06/27 13:11:14;;;;;;;13.00;11.88;;;;;;;29.80;39.08;95470.09;4875178;29;20230;-87
2021/06/27 13:13:45;;;;;;;2.47;2.38;;;;;;;29.44;38.54;95475.44;4875886;29;20786;-87
2021/06/27 13:16:28;;;;;;;;;;;;;;;;;;;;;
2021/06/27 13:18:55;;;;;;;2.60;1.88;;;;;;;29.18;39.76;95475.13;4874349;29;20215;-88
2021/06/27 13:21:28;;;;;;;1.83;1.73;;;;;;;29.08;40.22;95467.38;4873569;29;20248;-88
2021/06/27 13:33:23;;;;;;;3.83;2.10;;;;;;;28.87;40.97;95459.03;4871644;29;20708;-89
2021/06/27 13:36:08;;;;;;;2.10;1.90;;;;;;;29.04;41.63;95469.06;4874819;29;20262;-89
2021/06/27 13:38:43;;;;;;;2.30;2.05;;;;;;;29.11;40.32;95456.97;4875400;29;20216;-90
2021/06/27 13:41:42;;;;;;;2.15;1.70;;;;;;;29.24;40.18;95451.94;4875317;29;20235;-91
2021/06/27 13:56:56;;;;;;;2.08;1.98;;;;;;;29.61;39.64;95446.38;4828027;29;20711;-89
2021/06/27 13:59:48;;;;;;;1.70;1.60;;;;;;;29.71;38.19;95437.38;4875303;29;20212;-87
2021/06/27 14:02:17;;;;;;;2.00;1.90;;;;;;;29.77;39.02;95446.81;4874548;29;20207;-89
2021/06/27 14:04:54;;;;;;;1.90;1.80;;;;;;;29.47;37.91;95445.63;4874334;29;20231;-89
2021/06/27 14:18:13;;;;;;;;;;;;;;;;;;;;;
2021/06/27 14:21:00;;;;;;;4.70;2.15;;;;;;;29.65;39.00;95444.66;4831728;29;20219;-90
2021/06/27 14:23:34;;;;;;;2.03;1.92;;;;;;;29.88;39.15;95448.91;4875136;29;20234;-90
2021/06/27 14:26:08;;;;;;;1.92;1.83;;;;;;;29.99;39.44;95446.84;4874801;29;20231;-90
2021/06/27 14:32:18;;;;;;;;;;;;;;;;;;;;;
2021/06/27 14:35:07;;;;;;;1.90;1.80;;;;;;;29.48;39.62;95428.63;4872702;29;20226;-90
2021/06/27 14:37:57;;;;;;;1.70;1.60;;;;;;;29.59;41.38;95423.88;4863263;29;20211;-90
2021/06/27 14:40:57;;;;;;;2.30;2.20;;;;;;;29.68;38.92;95427.38;4869230;29;20266;-90
2021/06/27 14:46:35;;;;;;;3.53;2.15;;;;;;;29.39;40.00;95425.91;4873092;29;20214;-90
2021/06/27 14:51:56;;;;;;;2.25;2.15;;;;;;;29.30;41.10;95432.19;4871860;29;20218;-90
2021/06/27 14:54:34;;;;;;;2.50;2.30;;;;;;;29.08;41.28;95424.94;4873944;29;20266;-89
2021/06/27 14:57:27;;;;;;;2.85;2.53;;;;;;;29.03;40.14;95430.38;4875227;29;20231;-89
2021/06/27 15:02:54;;;;;;;2.47;2.28;;;;;;;29.02;41.13;95420.84;4855404;29;20255;-84
2021/06/27 15:05:21;;;;;;;2.30;2.10;;;;;;;29.27;41.54;95422.94;4859980;29;20228;-84
2021/06/27 15:07:48;;;;;;;2.33;2.13;;;;;;;29.36;40.91;95425.69;4861861;29;20295;-84
2021/06/27 15:10:16;;;;;;;2.55;2.30;;;;;;;29.14;40.49;95429.06;4860610;29;20213;-83
2021/06/27 15:12:42;;;;;;;2.55;2.35;;;;;;;28.91;40.90;95427.44;4860228;29;20212;-84
2021/06/27 15:15:09;;;;;;;2.55;2.38;;;;;;;28.68;40.81;95431.81;4861034;29;20235;-85
2021/06/27 15:17:35;;;;;;;2.88;2.20;;;;;;;28.52;41.30;95423.38;4860778;29;20208;-82
2021/06/27 15:20:02;;;;;;;2.95;2.30;;;;;;;28.33;41.40;95420.81;4858700;29;20211;-86
2021/06/27 15:22:29;;;;;;;4.22;2.17;;;;;;;28.21;42.29;95415.22;4869477;29;20195;-84
2021/06/27 15:25:01;;;;;;;2.55;2.35;;;;;;;28.19;41.46;95418.16;4874111;29;20271;-87
2021/06/27 15:27:30;;;;;;;2.75;2.10;;;;;;;28.11;41.57;95423.28;4873300;29;20235;-88
2021/06/27 15:30:01;;;;;;;2.55;2.35;;;;;;;28.08;42.32;95426.53;4873336;29;20203;-86
2021/06/27 15:32:29;;;;;;;2.20;2.10;;;;;;;28.05;42.27;95417.31;4872573;29;20302;-87
2021/06/27 15:35:32;;;;;;;2.60;2.50;;;;;;;28.07;41.46;95419.69;4872294;29;20247;-89
2021/06/27 15:38:01;;;;;;;2.40;2.30;;;;;;;28.20;41.70;95421.59;4857561;29;20204;-86
2021/06/27 15:40:28;;;;;;;2.30;2.10;;;;;;;28.24;41.20;95422.56;4872958;29;20211;-86
2021/06/27 15:42:58;;;;;;;2.30;2.20;;;;;;;28.29;42.12;95429.66;4872913;29;20242;-85
2021/06/27 15:45:24;;;;;;;2.15;2.05;;;;;;;28.39;41.67;95421.50;4876061;29;20236;-83
2021/06/27 15:47:59;;;;;;;2.20;2.10;;;;;;;28.32;41.06;95419.25;4877442;29;20211;-84
2021/06/27 15:50:30;;;;;;;2.63;2.33;;;;;;;28.38;40.90;95423.38;4880270;29;20205;-86
2021/06/27 15:52:57;;;;;;;2.20;2.00;;;;;;;28.40;40.75;95413.28;4877082;29;20295;-85
2021/06/27 15:55:24;;;;;;;2.55;2.45;;;;;;;28.43;40.87;95410.03;4885425;29;20250;-85
2021/06/27 15:58:04;;;;;;;;;;;;;;;;;;;;;
2021/06/27 16:00:42;;;;;;;2.40;2.20;;;;;;;28.50;40.38;95405.13;4884583;29;20199;-85
2021/06/27 16:05:58;;;;;;;2.50;2.33;;;;;;;28.53;39.56;95407.19;4875209;29;20235;-87
2021/06/27 16:08:27;;;;;;;2.22;2.13;;;;;;;28.55;39.00;95398.94;4876754;29;20234;-86
2021/06/27 16:10:57;;;;;;;2.45;2.20;;;;;;;28.44;39.75;95403.66;4876826;29;20267;-86
2021/06/27 16:13:24;;;;;;;2.30;2.10;;;;;;;28.51;40.75;95408.56;4876740;29;20264;-86
2021/06/27 16:15:52;;;;;;;5.90;2.47;;;;;;;28.46;39.65;95395.44;4876701;29;20598;-85
2021/06/27 16:18:30;;;;;;;2.53;2.20;;;;;;;28.33;39.09;95396.97;4876586;29;20227;-86
2021/06/27 16:20:57;;;;;;;2.50;2.30;;;;;;;28.41;40.04;95398.97;4876786;29;20816;-85
2021/06/27 16:23:30;;;;;;;2.25;2.15;;;;;;;28.47;39.63;95402.31;4876579;29;20734;-85
2021/06/27 16:26:11;;;;;;;2.10;2.00;;;;;;;28.52;39.45;95407.47;4876867;29;20771;-85
2021/06/27 16:28:39;;;;;;;2.13;1.88;;;;;;;28.44;38.43;95402.88;4877919;29;20731;-86
2021/06/27 16:31:09;;;;;;;2.30;2.20;;;;;;;28.45;39.37;95401.81;4878219;29;20346;-84
2021/06/27 16:33:38;;;;;;;2.15;2.05;;;;;;;28.29;38.56;95406.56;4878298;29;20274;-84
2021/06/27 16:36:05;;;;;;;2.13;2.03;;;;;;;28.23;38.77;95409.63;4879073;29;20234;-84
2021/06/27 16:38:34;;;;;;;2.13;2.03;;;;;;;28.19;39.20;95406.75;4877249;29;20212;-84
2021/06/27 16:41:08;;;;;;;2.63;2.42;;;;;;;28.19;39.54;95412.03;4876718;29;20668;-85
2021/06/27 16:43:51;;;;;;;2.80;2.33;;;;;;;28.26;38.87;95409.03;4874831;29;20899;-86
2021/06/27 16:46:19;;;;;;;2.50;2.30;;;;;;;28.17;39.18;95414.97;4876236;29;20307;-85
2021/06/27 16:48:56;;;;;;;2.10;2.00;;;;;;;28.18;38.65;95411.25;4876660;29;20245;-85
2021/06/27 16:51:28;;;;;;;2.22;2.10;;;;;;;28.14;39.37;95407.59;4876715;29;20628;-86
2021/06/27 16:53:57;;;;;;;2.30;2.20;;;;;;;28.10;38.66;95413.78;4875814;29;20251;-85
2021/06/27 16:56:45;;;;;;;1.95;1.85;;;;;;;28.07;39.14;95406.44;4874671;29;20674;-84
2021/06/27 16:59:37;;;;;;;2.00;1.90;;;;;;;28.05;39.59;95404.06;4877443;29;20208;-85
2021/06/27 17:06:16;;;;;;;2.50;2.30;;;;;;;28.07;39.25;95407.22;4870738;29;20235;-86
2021/06/27 17:20:12;;;;;;;2.30;2.20;;;;;;;28.13;39.18;95424.56;4692932;30;20209;-88
2021/06/27 17:23:11;;;;;;;2.38;2.15;;;;;;;28.10;39.14;95430.44;4724055;29;20221;-85
2021/06/27 17:26:00;;;;;;;3.03;2.72;;;;;;;28.02;39.75;95428.47;4854745;29;20224;-87
2021/06/27 17:31:28;;;;;;;2.70;2.50;;;;;;;27.94;39.41;95431.78;4876905;29;20204;-85
2021/06/27 17:34:00;;;;;;;2.42;2.20;;;;;;;27.74;39.66;95440.81;4877494;29;20239;-85
2021/06/27 17:36:34;;;;;;;2.65;2.45;;;;;;;27.67;40.09;95429.84;4878167;29;20203;-88
2021/06/27 17:39:05;;;;;;;2.35;2.25;;;;;;;27.63;39.99;95434.13;4877136;29;20203;-85
2021/06/27 17:41:55;;;;;;;2.80;2.60;;;;;;;27.64;39.83;95440.19;4878132;29;20243;-84
2021/06/27 17:44:30;;;;;;;6.60;6.00;;;;;;;27.62;40.17;95445.00;4859485;29;20246;-84
2021/06/27 17:47:05;;;;;;;6.00;5.50;;;;;;;27.58;40.82;95444.78;4862465;29;20825;-85
2021/06/27 17:49:50;;;;;;;5.80;5.30;;;;;;;27.53;40.83;95450.09;4864726;29;20235;-86
2021/06/27 17:52:17;;;;;;;2.90;2.70;;;;;;;27.48;40.65;95445.69;4887669;29;20206;-82
2021/06/27 17:57:41;;;;;;;3.70;3.40;;;;;;;27.41;41.15;95447.91;4876588;29;20254;-86
2021/06/27 18:00:16;;;;;;;3.25;3.05;;;;;;;27.36;41.12;95450.59;4886250;29;20207;-87
2021/06/27 18:02:47;;;;;;;2.70;2.50;;;;;;;27.33;41.38;95451.19;4882902;29;20235;-87
2021/06/27 18:05:14;;;;;;;2.80;2.60;;;;;;;27.35;41.92;95454.31;4885461;29;20215;-87
2021/06/27 18:07:41;;;;;;;3.08;2.88;;;;;;;27.34;41.76;95446.66;4888687;29;20268;-89
2021/06/27 18:10:09;;;;;;;2.95;2.72;;;;;;;27.38;41.43;95453.75;4890887;29;20223;-87
2021/06/27 18:12:36;;;;;;;3.33;2.42;;;;;;;27.36;41.93;95447.97;4889360;29;20219;-87
2021/06/27 18:15:04;;;;;;;4.10;3.17;;;;;;;27.38;42.21;95447.69;4886995;29;20261;-86
2021/06/27 18:17:30;;;;;;;5.00;3.35;;;;;;;27.39;42.09;95451.91;4887255;29;20214;-87
2021/06/27 18:20:01;;;;;;;2.90;2.60;;;;;;;27.36;42.38;95442.69;4889454;29;20203;-88
2021/06/27 18:22:30;;;;;;;3.00;2.80;;;;;;;27.35;42.70;95443.75;4888023;29;20670;-88
2021/06/27 18:25:06;;;;;;;3.25;2.50;;;;;;;27.28;42.69;95440.69;4863502;29;20223;-88
2021/06/27 18:27:42;;;;;;;2.88;2.60;;;;;;;27.24;42.72;95444.97;4861580;29;20208;-87
2021/06/27 18:30:12;;;;;;;4.22;2.83;;;;;;;27.10;43.51;95436.97;4857972;29;20228;-86
2021/06/27 18:32:38;;;;;;;2.58;2.47;;;;;;;27.05;43.00;95442.31;4865670;29;20242;-87
2021/06/27 18:35:05;;;;;;;2.50;2.30;;;;;;;27.01;43.11;95443.16;4867578;29;20232;-88
2021/06/27 18:37:41;;;;;;;2.88;2.53;;;;;;;26.98;43.37;95441.06;4864446;29;20631;-89
2021/06/27 18:41:00;;;;;;;3.05;2.78;;;;;;;26.93;44.25;95452.47;4862327;29;20236;-88
2021/06/27 18:54:19;;;;;;;;;;;;;;;;;;;;;
2021/06/27 18:56:48;;;;;;;2.70;2.50;;;;;;;26.47;44.65;95457.47;4783727;29;20731;-86
2021/06/27 18:59:17;;;;;;;2.60;2.40;;;;;;;26.42;44.56;95460.94;4874863;29;20215;-84
2021/06/27 19:01:46;;;;;;;2.70;2.50;;;;;;;26.47;44.25;95460.09;4875526;29;20280;-83
2021/06/27 19:04:18;;;;;;;2.45;2.33;;;;;;;26.38;44.14;95464.41;4875197;29;20463;-83
2021/06/27 19:06:50;;;;;;;3.63;2.50;;;;;;;26.39;44.30;95461.50;4875611;29;20207;-83
2021/06/27 19:09:17;;;;;;;2.75;2.55;;;;;;;26.33;44.54;95457.34;4875561;29;20255;-84
2021/06/27 19:11:54;;;;;;;2.90;2.70;;;;;;;26.29;44.86;95453.69;4875424;29;20231;-83
2021/06/27 19:14:25;;;;;;;2.75;2.55;;;;;;;26.23;45.55;95453.97;4875201;29;20262;-84
2021/06/27 19:16:57;;;;;;;2.90;2.70;;;;;;;26.14;45.71;95453.78;4875552;29;20203;-84
2021/06/27 19:19:25;;;;;;;2.83;2.60;;;;;;;26.14;45.72;95451.16;4876503;29;20195;-83
2021/06/27 19:21:53;;;;;;;2.88;2.58;;;;;;;26.06;46.04;95457.81;4880360;29;20867;-85
2021/06/27 19:24:22;;;;;;;3.05;2.78;;;;;;;26.13;45.80;95460.13;4879779;29;20258;-83
2021/06/27 19:26:51;;;;;;;2.65;2.45;;;;;;;26.05;45.04;95458.88;4880942;29;20298;-86
2021/06/27 19:29:18;;;;;;;2.60;2.40;;;;;;;26.03;44.72;95463.63;4885369;29;20227;-86
2021/06/27 19:31:50;;;;;;;2.50;2.30;;;;;;;25.85;44.92;95460.88;4886060;29;20239;-83
2021/06/27 19:37:24;;;;;;;2.30;2.10;;;;;;;25.73;44.90;95469.16;4854202;29;20204;-82
2021/06/27 19:39:54;;;;;;;2.30;2.20;;;;;;;25.74;44.61;95468.09;4902453;29;20727;-83
2021/06/27 19:42:50;;;;;;;2.67;2.47;;;;;;;25.74;45.04;95473.38;4899482;29;20274;-83
2021/06/27 19:45:32;;;;;;;2.95;2.22;;;;;;;25.71;45.29;95481.81;4837144;29;20237;-84
2021/06/27 19:48:03;;;;;;;3.92;2.20;;;;;;;25.69;45.34;95492.66;4889521;29;20216;-83
2021/06/27 19:50:30;;;;;;;2.55;2.40;;;;;;;25.65;45.78;95488.97;4882137;29;20227;-82
2021/06/27 19:53:08;;;;;;;2.63;2.42;;;;;;;25.53;46.76;95482.44;4882560;29;20216;-84
2021/06/27 19:55:35;;;;;;;3.15;2.55;;;;;;;25.40;47.18;95494.38;4874426;29;20287;-86
2021/06/27 19:58:28;;;;;;;2.40;2.30;;;;;;;25.36;47.68;95488.88;4896013;29;20214;-85
2021/06/27 20:01:05;;;;;;;2.60;2.40;;;;;;;25.35;47.73;95497.81;4872072;29;20203;-83
2021/06/27 20:03:47;;;;;;;2.63;2.42;;;;;;;25.32;48.37;95492.31;4882797;29;20208;-85
2021/06/27 20:06:17;;;;;;;2.35;2.25;;;;;;;25.34;48.49;95495.47;4881818;29;20231;-85
2021/06/27 20:09:06;;;;;;;2.85;2.65;;;;;;;25.37;48.57;95500.97;4879924;29;20203;-89
2021/06/27 20:11:46;;;;;;;2.70;2.50;;;;;;;25.36;48.63;95502.03;4881199;29;20235;-88
2021/06/27 20:14:23;;;;;;;;;;;;;;;;;;;;;
2021/06/27 20:17:03;;;;;;;;;;;;;;;;;;;;;
2021/06/27 20:54:01;;;;;;;;;;;;;;;;;;;;;
2021/06/27 21:13:36;;;;;;;3.22;2.97;;;;;;;24.53;54.24;95495.69;4813071;29;20209;-87
2021/06/27 21:16:15;;;;;;;4.38;3.20;;;;;;;24.58;54.09;95488.59;4841643;29;20252;-87
2021/06/27 21:18:43;;;;;;;3.58;2.97;;;;;;;24.54;53.59;95495.44;4862408;29;20204;-88
2021/06/27 21:21:10;;;;;;;3.10;2.80;;;;;;;24.44;53.86;95500.69;4861671;29;20803;-87
2021/06/27 21:23:51;;;;;;;3.10;2.90;;;;;;;24.33;55.06;95499.16;4861981;29;20534;-87
2021/06/27 21:26:50;;;;;;;4.18;2.85;;;;;;;24.30;55.63;95503.09;4862904;29;20220;-87
2021/06/27 21:33:27;;;;;;;3.20;3.00;;;;;;;24.33;56.39;95502.56;4845438;29;20236;-88
2021/06/27 21:36:20;;;;;;;3.40;3.17;;;;;;;24.29;56.48;95504.13;4863011;29;20752;-87
2021/06/27 21:42:31;;;;;;;4.00;2.75;;;;;;;24.22;56.35;95502.81;4855721;29;20218;-88
2021/06/27 21:45:01;;;;;;;3.60;3.28;;;;;;;24.15;55.86;95494.41;4902958;23;20254;-86
2021/06/27 21:47:28;;;;;;;3.15;2.95;;;;;;;24.07;56.99;95493.06;4882873;29;20267;-87
2021/06/27 21:49:57;;;;;;;2.90;2.70;;;;;;;23.95;57.25;95492.53;4879778;29;20319;-85
2021/06/27 21:52:27;;;;;;;2.88;2.67;;;;;;;23.81;57.98;95489.66;4880761;29;20200;-84
2021/06/27 21:54:53;;;;;;;2.72;2.53;;;;;;;23.74;57.80;95497.00;4880769;29;20283;-87
2021/06/27 21:57:20;;;;;;;2.63;2.42;;;;;;;23.70;56.79;95488.03;4879771;29;20287;-84
2021/06/27 21:59:47;;;;;;;2.72;2.53;;;;;;;23.70;56.96;95496.72;4881408;29;20211;-84
2021/06/27 22:02:19;;;;;;;2.47;2.20;;;;;;;23.74;56.64;95492.53;4880187;29;20267;-84
2021/06/27 22:05:04;;;;;;;4.35;2.70;;;;;;;23.68;56.77;95490.16;4881640;29;20231;-84
2021/06/27 22:07:52;;;;;;;2.17;1.98;;;;;;;23.58;56.87;95484.88;4881798;29;20211;-85